Ana Sayfa
METAR-TAF:

METAR-TAF

Havaalanları :

Zvartnots Uluslararası Havalimanı

Erivan, Ermenistan

Enlem: 40-08-50N, Boylam: 044-23-45E, yükseklik: 865 m

Güncel hava durumu gözlemi

Rapor saat 19:00 UTC de 34 dakika önce yapıldı.
Sakin rüzgar
Sıcaklık -2°C
Nem 80%
Basınç 1019 hPa
Görüş mesafesi: 3500 m
4600 ft yükseklikte az bulutlu
Pus

METAR: UDYZ 181900Z 00000KT 3500 BR FEW046 M02/M05 Q1019 R09/090070 NOSIG

Saat: 23:34 (19:34 UTC)

Tahmin

Rapor saat 17:05 UTC de 26 saat ve 29 dakika önce yapıldı.
Ayın 18'si saat 18 UTC'den ayın 19'si saat 18 UTC'ye kadar geçerli Tahmin
Rüzgar değişken yönden 4 kt
Görüş mesafesi: 1000 m
Pus
Geçici
ayın 18'si saat 21 UTC'den ayın 19'si saat 03 UTC'ye kadar
Görüş mesafesi: 0200 m
100 ft yükseklikte
Donan sis

TAF: UDYZ 171705Z 1818/1918 VRB04KT 1000 BR NSC TEMPO 1821/1903 0200 FZFG VV001

4.000'den fazla havaalanı için hava durumu gözlemleri ve tahminleri (METAR ve TAF raporları).

Kullanılabilir istasyonlar harita üzerinde sarı ve kırmızı noktalarla gösterilir.

İstasyonun adını görmek için fareyi noktanın üzerinde gezdirin.

Sonrasında hava gözlem ve tahminlerini görmek için tıklayın.

Haritayı değiştirmek için: yaklaştırmak için siyah artı işaretli yeşil düğmeye ve uzaklaştırmak için de eksi işaretli düğmeye hızla tıklayın; bitişik haritalar için yeşil okları kullanın.


METAR-TAF: